Time;durP1;ratioP1;P1;durP2;ratioP2;P2;SDS_P1;SDS_P2;PMS_P1;PMS_P2;Temp;Humidity;BMP_temperature;BMP_pressure;BME280_temperature;BME280_humidity;BME280_pressure;Samples;Min_cycle;Max_cycle;Signal;HPM_P1;HPM_P2
2023/01/20 00:03:33;;;;;;;47.72;24.02;;;;;;;2.14;100.00;99613.31;5033944;28;20052;-83
2023/01/20 00:06:00;;;;;;;47.85;23.60;;;;;;;2.14;100.00;99618.53;5033488;28;20041;-80
2023/01/20 00:08:25;;;;;;;47.92;24.35;;;;;;;2.20;100.00;99607.56;5032357;28;20045;-79
2023/01/20 00:10:59;;;;;;;51.75;24.75;;;;;;;2.26;100.00;99612.25;5032361;28;20074;-81
2023/01/20 00:13:25;;;;;;;48.33;25.13;;;;;;;2.15;100.00;99614.97;5051944;28;20107;-81
2023/01/20 00:15:56;;;;;;;45.55;23.58;;;;;;;2.17;100.00;99609.59;5018468;28;20045;-81
2023/01/20 00:18:30;;;;;;;44.90;23.73;;;;;;;2.08;100.00;99613.84;5051435;28;20045;-83
2023/01/20 00:21:23;;;;;;;45.90;23.45;;;;;;;2.08;100.00;99613.84;5030219;28;20053;-80
2023/01/20 00:24:07;;;;;;;45.35;24.17;;;;;;;2.06;100.00;99620.97;5020232;28;20022;-84
2023/01/20 00:27:17;;;;;;;44.75;23.90;;;;;;;1.86;100.00;99627.03;4970269;28;20035;-80
2023/01/20 00:34:18;;;;;;;48.17;23.92;;;;;;;1.98;100.00;99621.63;5015057;28;20046;-84
2023/01/20 00:40:52;;;;;;;40.00;17.08;;;;;;;2.07;100.00;99622.63;5320844;22;20045;-82
2023/01/20 00:43:32;;;;;;;;;;;;;;;2.06;100.00;99616.56;5194407;22;20111;-82
2023/01/20 00:46:37;;;;;;;45.90;20.35;;;;;;;1.98;100.00;99619.03;5035933;28;19937;-82
2023/01/20 00:52:41;;;;;;;49.67;20.80;;;;;;;1.95;100.00;99610.63;5030942;28;20041;-83
2023/01/20 00:55:34;;;;;;;40.05;17.80;;;;;;;2.18;100.00;99613.88;5043724;22;20053;-81
2023/01/20 00:58:40;;;;;;;42.72;18.05;;;;;;;2.05;100.00;99608.88;5005429;28;20042;-84
2023/01/20 01:01:47;;;;;;;42.45;18.92;;;;;;;2.08;100.00;99609.44;5037169;28;20129;-82
2023/01/20 01:05:00;;;;;;;42.55;18.85;;;;;;;1.91;100.00;99612.66;5013217;28;20050;-80
2023/01/20 01:08:13;;;;;;;42.47;19.08;;;;;;;1.96;100.00;99604.41;5068358;23;20056;-83
2023/01/20 01:11:12;;;;;;;41.03;18.73;;;;;;;1.80;100.00;99607.50;5002131;28;20064;-81
2023/01/20 01:13:47;;;;;;;44.33;19.05;;;;;;;1.83;100.00;99612.47;5001445;28;20022;-81
2023/01/20 01:16:38;;;;;;;44.28;18.90;;;;;;;1.87;100.00;99618.25;5015911;22;20054;-87
2023/01/20 01:19:03;;;;;;;43.15;19.50;;;;;;;1.94;100.00;99614.19;4997921;28;20042;-91
2023/01/20 01:21:29;;;;;;;42.63;18.95;;;;;;;2.14;100.00;99613.31;4999886;28;20034;-87
2023/01/20 01:23:54;;;;;;;46.38;20.38;;;;;;;2.24;100.00;99614.19;5000513;28;20026;-88
2023/01/20 01:26:20;;;;;;;43.50;19.13;;;;;;;2.14;100.00;99621.16;4999630;28;20062;-88
2023/01/20 01:28:47;;;;;;;44.67;18.50;;;;;;;2.15;100.00;99620.22;4998900;28;20038;-87
2023/01/20 01:31:13;;;;;;;42.85;18.70;;;;;;;2.18;100.00;99614.72;5015872;28;20114;-88
2023/01/20 01:33:40;;;;;;;41.28;17.05;;;;;;;2.42;100.00;99612.59;5007002;28;20430;-88
2023/01/20 01:36:08;;;;;;;41.28;18.55;;;;;;;2.54;100.00;99608.09;5019058;28;20029;-88
2023/01/20 01:38:34;;;;;;;44.58;18.77;;;;;;;2.29;100.00;99622.44;4999625;28;20063;-85
2023/01/20 01:41:00;;;;;;;43.47;19.45;;;;;;;2.15;100.00;99622.81;5021172;28;20022;-89
2023/01/20 01:43:28;;;;;;;44.10;19.52;;;;;;;2.08;100.00;99614.69;5020499;28;20034;-86
2023/01/20 01:45:54;;;;;;;44.97;18.40;;;;;;;2.11;100.00;99621.41;5020885;28;20030;-86
2023/01/20 01:48:28;;;;;;;38.17;17.20;;;;;;;2.38;100.00;99619.06;5020929;28;20030;-87
2023/01/20 01:51:01;;;;;;;47.17;19.80;;;;;;;2.24;100.00;99619.41;5021151;28;20029;-89
2023/01/20 01:53:28;;;;;;;;;;;;;;;2.12;100.00;99617.84;5005164;28;20022;-87
2023/01/20 01:55:59;;;;;;;41.83;17.60;;;;;;;2.25;100.00;99615.84;5021354;28;19945;-88
2023/01/20 01:58:36;;;;;;;41.10;18.05;;;;;;;2.33;100.00;99610.78;5021131;28;20015;-87
2023/01/20 02:01:02;;;;;;;40.13;17.55;;;;;;;2.37;100.00;99614.78;5021087;28;20026;-90
2023/01/20 02:03:34;;;;;;;38.85;17.35;;;;;;;2.22;100.00;99605.63;5021108;28;20046;-88
2023/01/20 02:06:01;;;;;;;43.22;18.33;;;;;;;2.18;100.00;99604.25;5021099;28;20033;-87
2023/01/20 02:08:26;;;;;;;42.47;17.95;;;;;;;2.25;100.00;99604.56;5003972;28;20065;-88
2023/01/20 02:10:52;;;;;;;43.15;17.90;;;;;;;2.23;100.00;99602.06;5020809;28;20046;-89
2023/01/20 02:13:18;;;;;;;41.03;17.88;;;;;;;2.21;100.00;99601.38;5020784;28;20034;-87
2023/01/20 02:16:04;;;;;;;38.20;17.05;;;;;;;2.09;100.00;99598.00;5020769;28;20022;-87
2023/01/20 02:18:57;;;;;;;37.05;16.58;;;;;;;2.09;100.00;99605.03;5004261;28;20084;-88
2023/01/20 02:21:32;;;;;;;43.38;18.67;;;;;;;2.20;100.00;99602.34;5020699;28;20129;-87
2023/01/20 02:24:10;;;;;;;42.17;17.58;;;;;;;2.43;100.00;99597.72;5020761;28;20037;-89
2023/01/20 02:26:57;;;;;;;37.13;17.13;;;;;;;2.59;100.00;99592.81;5020581;28;20030;-89
2023/01/20 02:29:43;;;;;;;35.70;16.10;;;;;;;2.54;100.00;99589.78;5005263;28;20045;-85
2023/01/20 02:32:43;;;;;;;38.30;16.98;;;;;;;2.42;100.00;99581.22;5020492;28;20029;-88
2023/01/20 02:35:15;;;;;;;39.25;16.63;;;;;;;2.42;100.00;99583.81;5020440;28;20086;-89
2023/01/20 02:37:51;;;;;;;29.73;12.88;;;;;;;2.30;100.00;99587.50;5020063;28;20090;-89
2023/01/20 02:40:30;;;;;;;34.78;15.55;;;;;;;2.28;100.00;99594.66;5019392;28;20022;-87
2023/01/20 02:43:09;;;;;;;40.08;17.33;;;;;;;2.38;100.00;99590.31;5019859;28;20023;-87
2023/01/20 02:45:38;;;;;;;34.80;15.98;;;;;;;2.36;100.00;99594.81;5020221;28;20022;-90
2023/01/20 02:48:31;;;;;;;39.20;16.80;;;;;;;2.52;100.00;99587.28;5019177;28;20046;-91
2023/01/20 02:51:18;;;;;;;37.42;16.27;;;;;;;2.56;100.00;99580.84;5020246;28;20030;-88
2023/01/20 02:53:59;;;;;;;35.90;16.77;;;;;;;2.68;100.00;99570.28;5020381;28;20042;-90
2023/01/20 02:56:28;;;;;;;39.47;17.25;;;;;;;2.58;100.00;99568.47;5001168;28;20046;-87
2023/01/20 02:59:05;;;;;;;39.50;17.60;;;;;;;2.44;100.00;99579.31;5003428;28;20072;-89
2023/01/20 03:01:39;;;;;;;37.47;16.02;;;;;;;2.46;100.00;99585.22;5020458;28;20026;-87
2023/01/20 03:04:09;;;;;;;36.50;16.60;;;;;;;2.66;100.00;99575.63;5020437;28;20053;-88
2023/01/20 03:06:39;;;;;;;37.20;16.45;;;;;;;2.74;100.00;99572.34;5020284;28;20103;-88
2023/01/20 03:13:05;;;;;;;33.92;15.73;;;;;;;2.77;100.00;99574.69;5020149;28;20084;-88
2023/01/20 03:15:38;;;;;;;37.42;15.95;;;;;;;2.55;100.00;99566.09;5019822;28;20022;-86
2023/01/20 03:18:03;;;;;;;35.60;16.40;;;;;;;2.73;100.00;99576.75;5018870;28;20034;-88
2023/01/20 03:20:31;;;;;;;36.03;16.92;;;;;;;2.57;100.00;99573.81;5003343;28;20029;-88
2023/01/20 03:22:57;;;;;;;39.13;16.85;;;;;;;2.50;100.00;99573.53;5019816;28;20024;-88
2023/01/20 03:25:23;;;;;;;35.30;16.25;;;;;;;2.47;100.00;99578.22;5019856;28;20077;-91
2023/01/20 03:27:48;;;;;;;38.47;17.13;;;;;;;2.51;100.00;99575.19;5019759;28;20026;-87
2023/01/20 03:30:15;;;;;;;36.45;15.80;;;;;;;2.49;100.00;99571.88;5019471;28;20082;-88
2023/01/20 03:32:44;;;;;;;37.05;15.85;;;;;;;2.54;100.00;99576.72;5019146;28;20030;-88
2023/01/20 03:35:14;;;;;;;39.45;16.42;;;;;;;2.57;100.00;99572.03;5019400;28;20041;-87
2023/01/20 03:37:41;;;;;;;36.05;16.25;;;;;;;2.62;100.00;99568.19;5019077;28;20101;-88
2023/01/20 03:40:11;;;;;;;35.55;14.95;;;;;;;2.60;100.00;99569.16;5019105;28;20046;-89
2023/01/20 03:42:51;;;;;;;34.75;15.23;;;;;;;2.54;100.00;99574.94;5019616;28;20042;-88
2023/01/20 03:45:44;;;;;;;36.88;16.17;;;;;;;2.53;100.00;99568.03;5019511;28;20037;-89
2023/01/20 03:48:34;;;;;;;37.63;16.35;;;;;;;2.49;100.00;99569.25;5013277;28;20042;-87
2023/01/20 03:51:11;;;;;;;34.53;16.17;;;;;;;2.42;100.00;99575.97;5019140;28;20061;-87
2023/01/20 03:53:47;;;;;;;37.17;15.77;;;;;;;2.30;100.00;99569.22;5019148;28;20062;-89
2023/01/20 03:56:36;;;;;;;37.10;16.02;;;;;;;2.37;100.00;99567.72;5018644;28;20032;-88
2023/01/20 04:07:14;;;;;;;35.53;16.05;;;;;;;2.37;100.00;99562.50;5010043;28;20073;-86
2023/01/20 04:21:25;;;;;;;30.38;13.70;;;;;;;2.45;100.00;99569.69;5015898;28;20077;-86
2023/01/20 04:24:03;;;;;;;29.75;13.25;;;;;;;2.50;100.00;99559.63;5015190;28;20042;-87
2023/01/20 04:26:29;;;;;;;27.42;12.63;;;;;;;2.54;100.00;99553.19;5016485;28;20034;-88
2023/01/20 04:36:06;;;;;;;;;;;;;;;2.53;100.00;99573.25;5016637;28;20053;-88
2023/01/20 04:38:31;;;;;;;26.08;12.07;;;;;;;2.28;100.00;99581.59;5016976;28;19917;-87
2023/01/20 04:40:57;;;;;;;23.27;11.93;;;;;;;2.18;100.00;99578.13;5015465;28;20042;-85
2023/01/20 04:43:22;;;;;;;22.45;11.60;;;;;;;2.17;100.00;99580.84;5015777;28;20038;-88
2023/01/20 04:45:48;;;;;;;27.90;12.52;;;;;;;2.13;100.00;99575.06;5016099;28;20038;-86
2023/01/20 04:48:13;;;;;;;26.52;13.10;;;;;;;2.19;100.00;99582.38;5016700;28;20118;-88
2023/01/20 05:02:01;;;;;;;31.65;14.18;;;;;;;2.38;100.00;99603.38;5015184;28;20408;-87
2023/01/20 05:04:27;;;;;;;29.73;14.13;;;;;;;2.38;100.00;99600.75;4998186;28;20030;-87
2023/01/20 05:06:52;;;;;;;32.60;14.77;;;;;;;2.48;100.00;99601.63;5014555;28;20023;-87
2023/01/20 05:17:14;;;;;;;32.60;15.15;;;;;;;2.58;100.00;99612.09;5016851;28;20139;-88
2023/01/20 05:19:42;;;;;;;33.05;14.70;;;;;;;2.47;100.00;99620.88;5015658;28;20046;-89
2023/01/20 05:22:08;;;;;;;33.78;14.57;;;;;;;2.53;100.00;99609.88;5015646;28;20106;-87
2023/01/20 05:24:33;;;;;;;33.30;15.27;;;;;;;2.32;100.00;99624.00;4994169;28;20057;-88
2023/01/20 05:27:00;;;;;;;32.97;15.25;;;;;;;2.25;100.00;99623.69;5000908;28;20042;-89
2023/01/20 05:30:03;;;;;;;37.05;15.75;;;;;;;2.22;100.00;99636.19;5001492;28;20030;-89
2023/01/20 05:32:28;;;;;;;;;;;;;;;2.22;100.00;99637.00;5000789;28;20045;-89
2023/01/20 05:34:54;;;;;;;31.10;13.98;;;;;;;2.13;100.00;99637.78;5001248;28;20307;-90
2023/01/20 05:37:19;;;;;;;36.67;15.05;;;;;;;2.04;100.00;99643.81;5000562;28;20030;-89
2023/01/20 05:39:48;;;;;;;34.92;15.40;;;;;;;2.00;100.00;99638.00;5003886;28;20073;-90
2023/01/20 05:42:14;;;;;;;29.20;13.55;;;;;;;2.14;100.00;99649.06;5004050;28;20093;-89
2023/01/20 05:44:40;;;;;;;30.33;13.90;;;;;;;2.04;100.00;99651.63;5000470;28;20122;-85
2023/01/20 05:47:05;;;;;;;30.23;14.93;;;;;;;2.05;100.00;99645.47;5001133;28;20042;-86
2023/01/20 05:49:33;;;;;;;30.90;15.07;;;;;;;1.86;100.00;99651.38;5002166;28;20057;-86
2023/01/20 05:51:59;;;;;;;34.50;15.57;;;;;;;1.82;100.00;99650.00;5000405;28;20498;-88
2023/01/20 05:54:25;;;;;;;32.15;14.93;;;;;;;1.84;100.00;99648.09;5000523;28;20038;-89
2023/01/20 05:56:50;;;;;;;29.08;14.10;;;;;;;1.92;100.00;99650.06;5000270;28;20050;-89
2023/01/20 05:59:17;;;;;;;32.65;15.75;;;;;;;1.87;100.00;99662.66;5000620;28;20035;-87
2023/01/20 06:01:43;;;;;;;35.72;16.08;;;;;;;1.83;100.00;99661.25;5000577;28;20073;-89
2023/01/20 06:04:08;;;;;;;36.58;15.98;;;;;;;1.71;100.00;99668.34;5001962;28;20038;-87
2023/01/20 06:06:34;;;;;;;39.75;17.83;;;;;;;1.80;100.00;99672.81;5001546;28;20049;-88
2023/01/20 06:09:26;;;;;;;37.67;17.67;;;;;;;1.92;100.00;99689.25;4974060;28;20045;-92
2023/01/20 06:11:52;;;;;;;39.28;17.98;;;;;;;2.13;100.00;99684.00;5081204;23;20049;-90
2023/01/20 06:14:17;;;;;;;36.80;17.13;;;;;;;2.13;100.00;99690.06;5021525;28;20030;-89
2023/01/20 06:16:43;;;;;;;33.63;16.50;;;;;;;2.02;100.00;99683.09;5025174;28;20040;-89
2023/01/20 06:19:08;;;;;;;31.48;15.20;;;;;;;1.95;100.00;99682.00;5023061;28;20041;-91
2023/01/20 06:21:38;;;;;;;34.03;16.15;;;;;;;1.84;100.00;99674.22;5025126;28;20034;-91
2023/01/20 06:24:04;;;;;;;31.25;15.68;;;;;;;1.90;100.00;99684.16;5023979;28;20034;-90
2023/01/20 06:26:32;;;;;;;32.50;15.45;;;;;;;1.79;100.00;99675.56;5024113;28;20034;-91
2023/01/20 06:29:03;;;;;;;32.90;15.13;;;;;;;1.78;100.00;99681.72;5022144;28;20065;-90
2023/01/20 06:31:32;;;;;;;;;;;;;;;1.66;100.00;99677.53;5022940;28;20049;-89
2023/01/20 06:33:58;;;;;;;30.45;14.43;;;;;;;1.71;100.00;99677.97;5021241;28;19913;-90
2023/01/20 06:36:23;;;;;;;33.50;16.45;;;;;;;1.87;100.00;99673.13;5020402;28;20037;-89
2023/01/20 06:38:51;;;;;;;30.58;14.73;;;;;;;2.15;100.00;99682.94;5019603;28;20037;-86
2023/01/20 06:41:19;;;;;;;29.20;15.00;;;;;;;2.06;100.00;99683.69;5019809;28;20034;-88
2023/01/20 06:43:49;;;;;;;31.38;15.63;;;;;;;2.11;100.00;99691.97;5022323;28;20034;-87
2023/01/20 06:46:18;;;;;;;27.70;14.68;;;;;;;2.02;100.00;99698.00;5022712;28;20033;-88
2023/01/20 06:48:44;;;;;;;30.35;16.52;;;;;;;1.96;100.00;99707.16;5022741;28;20038;-89
2023/01/20 06:51:16;;;;;;;33.28;16.73;;;;;;;1.76;100.00;99696.69;5020426;28;20076;-89
2023/01/20 06:53:45;;;;;;;35.45;16.80;;;;;;;1.74;100.00;99701.22;5024054;28;20030;-90
2023/01/20 06:56:12;;;;;;;33.65;15.70;;;;;;;1.85;100.00;99695.94;5005133;28;20042;-89
2023/01/20 06:58:38;;;;;;;29.30;15.30;;;;;;;2.23;100.00;99714.47;5039426;28;20488;-87
2023/01/20 07:01:12;;;;;;;34.20;15.93;;;;;;;1.84;100.00;99704.72;5022806;28;20034;-90
2023/01/20 07:03:40;;;;;;;29.23;15.25;;;;;;;1.60;100.00;99719.78;5020031;28;20406;-90
2023/01/20 07:06:30;;;;;;;30.20;14.70;;;;;;;1.58;100.00;99719.94;5018495;28;20402;-88
2023/01/20 07:08:57;;;;;;;34.17;15.30;;;;;;;1.68;100.00;99714.78;5020104;28;20034;-89
2023/01/20 07:11:23;;;;;;;36.17;16.98;;;;;;;1.82;100.00;99727.53;5018323;28;20132;-87
2023/01/20 07:13:49;;;;;;;29.48;15.15;;;;;;;1.94;100.00;99726.53;5018133;28;20033;-87
2023/01/20 07:16:14;;;;;;;30.92;15.45;;;;;;;2.16;100.00;99731.63;5018841;28;20037;-91
2023/01/20 07:18:41;;;;;;;31.98;16.20;;;;;;;2.13;100.00;99734.50;5020787;28;20395;-91
2023/01/20 07:21:11;;;;;;;31.02;15.90;;;;;;;2.06;100.00;99735.94;5018816;28;20061;-86
2023/01/20 07:23:38;;;;;;;31.73;15.52;;;;;;;2.08;100.00;99737.50;5012541;28;20175;-87
2023/01/20 07:26:09;;;;;;;32.92;17.70;;;;;;;1.91;100.00;99735.44;4998841;28;20037;-89
2023/01/20 07:28:36;;;;;;;29.70;16.45;;;;;;;1.91;100.00;99742.47;4999909;28;20035;-88
2023/01/20 07:31:14;;;;;;;31.13;17.02;;;;;;;2.20;100.00;99743.47;5034276;28;20506;-90
2023/01/20 07:33:39;;;;;;;30.95;16.60;;;;;;;2.28;100.00;99748.91;5001996;28;20093;-87
2023/01/20 07:36:07;;;;;;;30.60;16.17;;;;;;;2.50;100.00;99756.59;5014941;28;20117;-90
2023/01/20 07:38:33;;;;;;;30.48;16.15;;;;;;;2.60;100.00;99744.41;5035437;28;20085;-89
2023/01/20 07:41:00;;;;;;;29.83;15.77;;;;;;;2.52;100.00;99753.84;5029227;28;20108;-90
2023/01/20 07:43:55;;;;;;;27.60;15.85;;;;;;;2.53;100.00;99753.72;5024878;28;20037;-92
2023/01/20 07:46:21;;;;;;;26.33;14.73;;;;;;;2.61;100.00;99763.53;5025801;28;20129;-87
2023/01/20 07:48:48;;;;;;;32.28;16.60;;;;;;;2.62;100.00;99764.38;5024608;28;20102;-87
2023/01/20 07:51:15;;;;;;;29.88;15.57;;;;;;;2.80;100.00;99770.63;5019958;28;20044;-88
2023/01/20 07:53:45;;;;;;;29.70;16.05;;;;;;;2.88;100.00;99771.66;5027688;28;20049;-88
2023/01/20 07:56:19;;;;;;;28.70;16.15;;;;;;;2.69;100.00;99770.72;5049333;28;20060;-87
2023/01/20 07:58:46;;;;;;;28.88;14.60;;;;;;;2.68;100.00;99780.38;5015046;28;20038;-86
2023/01/20 08:01:18;;;;;;;25.50;14.57;;;;;;;2.91;100.00;99786.25;5030033;28;20009;-92
2023/01/20 08:03:44;;;;;;;25.58;14.85;;;;;;;2.79;100.00;99792.53;5020543;28;20053;-90
2023/01/20 08:06:12;;;;;;;29.27;16.45;;;;;;;2.74;100.00;99777.22;4995888;28;20060;-88
2023/01/20 08:08:37;;;;;;;29.05;15.57;;;;;;;2.73;100.00;99772.94;4995820;28;20038;-89
2023/01/20 08:11:04;;;;;;;27.33;14.90;;;;;;;2.63;100.00;99782.53;4996286;28;20053;-88
2023/01/20 08:13:38;;;;;;;28.02;15.15;;;;;;;2.65;100.00;99790.28;4995689;28;20058;-87
2023/01/20 08:16:09;;;;;;;27.20;15.00;;;;;;;2.67;100.00;99789.19;5008336;28;20061;-87
2023/01/20 08:18:41;;;;;;;25.33;14.90;;;;;;;2.89;100.00;99791.63;5003646;28;20035;-86
2023/01/20 08:21:17;;;;;;;25.60;14.10;;;;;;;3.01;100.00;99802.84;5002305;28;20154;-84
2023/01/20 08:23:49;;;;;;;29.02;15.57;;;;;;;2.96;100.00;99799.78;5000388;28;20070;-85
2023/01/20 08:26:18;;;;;;;25.80;14.77;;;;;;;2.93;100.00;99800.03;4982485;28;20053;-89
2023/01/20 08:28:43;;;;;;;25.92;14.75;;;;;;;3.11;100.00;99811.56;5001866;28;20030;-90
2023/01/20 08:31:15;;;;;;;26.73;14.35;;;;;;;3.07;100.00;99818.00;4998100;28;20099;-88
2023/01/20 08:33:42;;;;;;;23.30;13.68;;;;;;;3.08;100.00;99810.00;5001132;28;20569;-87
2023/01/20 08:36:10;;;;;;;23.73;14.32;;;;;;;3.19;100.00;99824.81;4997362;28;20045;-88
2023/01/20 08:38:40;;;;;;;23.45;13.90;;;;;;;3.11;100.00;99820.25;4996576;28;20496;-91
2023/01/20 08:41:09;;;;;;;24.05;13.68;;;;;;;3.26;100.00;99819.88;4997958;28;20039;-85
2023/01/20 08:43:34;;;;;;;25.55;14.15;;;;;;;3.16;100.00;99816.38;4999599;28;20043;-87
2023/01/20 08:46:03;;;;;;;26.15;14.05;;;;;;;3.38;100.00;99830.09;4998043;28;20144;-87
2023/01/20 08:48:51;;;;;;;24.73;13.88;;;;;;;3.45;100.00;99818.13;5009113;28;20042;-87
2023/01/20 08:51:31;;;;;;;26.42;14.70;;;;;;;3.48;100.00;99823.09;5011592;28;20762;-89
2023/01/20 08:54:33;;;;;;;23.90;14.15;;;;;;;3.39;100.00;99834.38;5010591;28;20046;-90
2023/01/20 08:57:04;;;;;;;28.52;14.88;;;;;;;3.41;100.00;99837.72;5009384;28;20042;-89
2023/01/20 08:59:35;;;;;;;28.13;14.93;;;;;;;3.27;100.00;99840.69;4996122;28;20137;-88
2023/01/20 09:02:13;;;;;;;29.77;16.67;;;;;;;3.34;100.00;99843.59;5011035;28;20034;-90
2023/01/20 09:04:41;;;;;;;28.05;14.85;;;;;;;3.52;100.00;99845.44;5010144;28;20014;-87
2023/01/20 09:07:11;;;;;;;26.05;15.27;;;;;;;3.54;100.00;99847.94;5011847;28;20041;-89
2023/01/20 09:09:38;;;;;;;28.77;15.55;;;;;;;3.77;100.00;99846.75;4994399;28;20034;-90
2023/01/20 09:12:21;;;;;;;27.48;15.23;;;;;;;3.64;100.00;99846.19;5012246;28;20070;-88
2023/01/20 09:17:37;;;;;;;30.98;15.48;;;;;;;3.68;100.00;99855.41;5037675;22;20064;-89
2023/01/20 09:20:05;;;;;;;28.13;16.17;;;;;;;3.81;100.00;99861.22;5032142;28;20038;-85
2023/01/20 09:22:42;;;;;;;29.23;15.90;;;;;;;3.75;100.00;99871.41;5031961;28;20022;-88
2023/01/20 09:25:11;;;;;;;27.40;14.57;;;;;;;3.92;100.00;99868.16;5033347;28;20057;-86
2023/01/20 09:27:40;;;;;;;28.83;13.77;;;;;;;4.34;100.00;99861.69;5031765;28;20069;-88
2023/01/20 09:30:21;;;;;;;30.27;15.10;;;;;;;4.26;100.00;99876.47;5039463;22;20869;-87
2023/01/20 09:33:13;;;;;;;24.38;14.15;;;;;;;4.22;100.00;99878.53;5031664;28;20084;-87
2023/01/20 09:35:53;;;;;;;23.45;12.23;;;;;;;4.49;100.00;99880.47;5022679;28;20064;-88
2023/01/20 09:44:30;;;;;;;23.80;13.30;;;;;;;3.85;100.00;99893.22;5031893;28;20063;-88
2023/01/20 09:47:22;;;;;;;24.60;14.18;;;;;;;3.70;100.00;99894.59;5033483;28;20058;-88
2023/01/20 09:53:35;;;;;;;25.23;14.45;;;;;;;3.48;100.00;99888.56;5055756;22;20053;-87
2023/01/20 09:56:24;;;;;;;30.35;15.63;;;;;;;3.63;100.00;99896.91;5063348;22;20054;-88
2023/01/20 09:59:24;;;;;;;26.13;14.68;;;;;;;3.78;100.00;99892.94;5021709;28;20081;-88
2023/01/20 10:01:55;;;;;;;24.92;15.13;;;;;;;3.70;100.00;99889.34;5016382;28;20053;-85
2023/01/20 10:04:43;;;;;;;19.33;11.13;;;;;;;3.64;100.00;99896.78;5048128;28;20057;-84
2023/01/20 10:07:32;;;;;;;26.52;15.48;;;;;;;3.83;100.00;99896.00;5037563;28;20042;-86
2023/01/20 10:10:28;;;;;;;25.48;15.05;;;;;;;4.03;100.00;99887.22;5035736;28;20033;-87
2023/01/20 10:13:46;;;;;;;25.40;15.68;;;;;;;4.02;100.00;99882.09;5043406;22;20036;-88
2023/01/20 10:16:22;;;;;;;29.98;15.57;;;;;;;3.90;100.00;99880.56;5028856;28;20080;-86
2023/01/20 10:18:59;;;;;;;26.83;15.65;;;;;;;3.90;100.00;99876.16;5033920;28;20045;-84
2023/01/20 10:22:14;;;;;;;29.48;16.55;;;;;;;3.93;100.00;99880.28;5042332;28;20061;-90
2023/01/20 10:25:01;;;;;;;28.63;16.90;;;;;;;3.95;100.00;99880.97;5037585;28;20038;-90
2023/01/20 10:27:32;;;;;;;28.38;16.20;;;;;;;4.30;100.00;99881.31;5016601;28;20033;-86
2023/01/20 10:30:14;;;;;;;27.65;15.75;;;;;;;4.25;100.00;99873.00;5035447;28;20033;-87
2023/01/20 10:32:47;;;;;;;29.75;16.08;;;;;;;4.23;100.00;99863.63;5022074;28;20137;-89
2023/01/20 10:35:24;;;;;;;26.38;16.10;;;;;;;4.46;100.00;99863.22;5038345;28;20041;-88
2023/01/20 10:38:18;;;;;;;30.08;16.20;;;;;;;4.58;100.00;99867.34;5121685;23;20049;-87
2023/01/20 10:41:25;;;;;;;23.70;13.85;;;;;;;5.09;100.00;99877.47;5034352;28;20048;-89
2023/01/20 10:44:32;;;;;;;27.92;15.30;;;;;;;5.25;100.00;99874.22;5050102;28;20030;-88
2023/01/20 10:47:26;;;;;;;24.27;14.73;;;;;;;5.28;100.00;99871.31;5033314;28;20048;-88
2023/01/20 10:50:16;;;;;;;21.63;13.68;;;;;;;5.08;100.00;99880.22;5033998;28;20034;-88
2023/01/20 10:53:34;;;;;;;22.65;14.10;;;;;;;5.08;100.00;99874.97;5030634;28;20050;-87
2023/01/20 10:56:25;;;;;;;19.88;11.95;;;;;;;5.13;100.00;99878.00;5031741;28;20029;-86
2023/01/20 10:58:55;;;;;;;21.33;13.13;;;;;;;5.08;100.00;99885.47;5028813;28;20037;-90
2023/01/20 11:01:38;;;;;;;22.48;12.38;;;;;;;5.38;100.00;99872.09;5021089;28;20515;-87
2023/01/20 11:04:18;;;;;;;26.85;13.70;;;;;;;5.28;100.00;99873.09;5024389;28;20058;-89
2023/01/20 11:07:11;;;;;;;23.92;13.85;;;;;;;5.39;100.00;99873.75;4996733;28;20042;-87
2023/01/20 11:10:07;;;;;;;24.80;13.32;;;;;;;5.52;100.00;99878.69;5028669;28;20054;-86
2023/01/20 11:12:46;;;;;;;23.27;13.68;;;;;;;5.38;100.00;99879.16;5034101;28;20037;-86
2023/01/20 11:16:00;;;;;;;24.45;13.93;;;;;;;5.37;100.00;99875.69;5035517;28;20021;-89
2023/01/20 11:19:00;;;;;;;23.67;13.98;;;;;;;5.10;100.00;99867.78;5036146;28;20147;-87
2023/01/20 11:21:49;;;;;;;25.75;14.38;;;;;;;5.04;100.00;99863.09;5030055;28;20034;-86
2023/01/20 11:24:36;;;;;;;24.90;14.95;;;;;;;5.11;100.00;99864.16;5016414;28;20045;-86
2023/01/20 11:27:19;;;;;;;25.58;15.10;;;;;;;5.30;100.00;99858.88;5030114;28;20030;-86
2023/01/20 11:29:51;;;;;;;26.80;15.52;;;;;;;5.30;100.00;99858.88;5016664;28;20050;-86
2023/01/20 11:32:47;;;;;;;24.05;14.63;;;;;;;5.33;100.00;99853.31;5020562;28;20031;-84
2023/01/20 11:35:40;;;;;;;24.10;14.55;;;;;;;5.38;100.00;99848.44;5014897;28;20038;-86
2023/01/20 11:38:30;;;;;;;25.40;15.15;;;;;;;5.49;100.00;99850.91;5021632;28;20065;-85
2023/01/20 11:41:05;;;;;;;27.05;15.50;;;;;;;5.58;100.00;99846.56;5018336;28;20097;-85
2023/01/20 11:44:09;;;;;;;23.60;14.43;;;;;;;5.67;100.00;99843.88;5032737;28;20030;-86
2023/01/20 11:47:18;;;;;;;23.35;14.55;;;;;;;5.95;100.00;99847.31;5088357;23;20060;-88
2023/01/20 11:49:47;;;;;;;24.58;14.32;;;;;;;5.96;100.00;99841.09;5002548;28;20050;-83
2023/01/20 11:52:48;;;;;;;22.73;14.30;;;;;;;5.96;100.00;99837.63;5031176;28;20026;-87
2023/01/20 11:56:13;;;;;;;22.40;13.82;;;;;;;5.86;100.00;99845.59;5042557;22;20034;-87
2023/01/20 11:59:46;;;;;;;23.38;14.23;;;;;;;5.69;100.00;99844.56;5058441;22;20029;-87
2023/01/20 12:02:40;;;;;;;21.40;13.57;;;;;;;6.08;100.00;99834.63;5013040;23;20050;-87
2023/01/20 12:05:16;;;;;;;20.73;13.17;;;;;;;5.82;100.00;99838.94;5008389;28;20053;-84
2023/01/20 12:07:50;;;;;;;21.52;13.35;;;;;;;5.81;100.00;99825.94;5085762;23;20308;-86
2023/01/20 12:10:29;;;;;;;22.17;13.60;;;;;;;5.76;100.00;99830.81;5038747;28;20065;-86
2023/01/20 12:13:24;;;;;;;20.73;13.48;;;;;;;5.87;100.00;99828.81;5023445;28;20048;-88
2023/01/20 12:15:54;;;;;;;20.75;13.02;;;;;;;5.80;100.00;99827.72;5027043;28;20040;-89
2023/01/20 12:18:46;;;;;;;20.58;13.40;;;;;;;5.76;100.00;99828.19;5017743;28;20045;-89
2023/01/20 12:21:19;;;;;;;23.02;13.85;;;;;;;5.60;100.00;99813.88;5031090;28;20041;-90
2023/01/20 12:23:53;;;;;;;22.45;14.73;;;;;;;5.49;100.00;99821.97;5039935;28;20108;-86
2023/01/20 12:26:22;;;;;;;28.67;14.27;;;;;;;5.81;100.00;99823.31;5028738;28;20108;-88
2023/01/20 12:29:06;;;;;;;24.02;15.50;;;;;;;5.69;100.00;99826.16;5029656;28;20034;-91
2023/01/20 12:31:43;;;;;;;29.10;15.85;;;;;;;5.60;100.00;99821.75;5046867;28;20079;-90
2023/01/20 12:34:14;;;;;;;24.95;15.30;;;;;;;5.36;100.00;99831.19;5022901;28;20054;-89
2023/01/20 12:37:02;;;;;;;27.98;15.73;;;;;;;5.24;100.00;99830.53;5036433;28;20049;-87
2023/01/20 12:39:37;;;;;;;26.50;16.05;;;;;;;5.13;100.00;99830.72;5048703;28;20044;-88
2023/01/20 12:42:09;;;;;;;25.35;15.00;;;;;;;5.37;100.00;99833.66;5055900;28;20041;-86
2023/01/20 12:44:46;;;;;;;24.85;14.50;;;;;;;5.37;100.00;99828.38;5073108;28;20032;-85
2023/01/20 12:47:23;;;;;;;23.92;14.95;;;;;;;5.37;100.00;99831.03;5043479;28;20075;-88
2023/01/20 12:50:00;;;;;;;25.23;15.52;;;;;;;5.30;100.00;99832.59;5044823;28;20093;-88
2023/01/20 12:52:48;;;;;;;22.45;14.25;;;;;;;5.20;100.00;99829.19;5031179;28;20057;-86
2023/01/20 12:55:47;;;;;;;23.10;14.18;;;;;;;5.27;100.00;99827.59;5043541;28;20053;-89
2023/01/20 12:58:50;;;;;;;21.42;13.27;;;;;;;5.43;100.00;99832.25;5053363;28;20048;-86
2023/01/20 13:02:02;;;;;;;26.27;13.00;;;;;;;5.52;100.00;99826.94;5048766;28;20034;-89
2023/01/20 13:04:54;;;;;;;21.70;13.48;;;;;;;5.54;100.00;99822.34;5041779;28;20041;-88
2023/01/20 13:07:45;;;;;;;20.60;12.75;;;;;;;5.61;100.00;99815.53;5031236;28;20125;-84
2023/01/20 13:10:45;;;;;;;18.15;12.43;;;;;;;5.60;100.00;99819.13;5029762;28;20076;-85
2023/01/20 13:13:39;;;;;;;24.17;14.05;;;;;;;5.48;100.00;99820.31;5017351;28;20038;-85
2023/01/20 13:16:15;;;;;;;22.75;13.45;;;;;;;5.54;100.00;99819.72;5013755;28;20479;-84
2023/01/20 13:19:11;;;;;;;23.25;13.90;;;;;;;5.65;100.00;99816.06;5024706;28;20132;-86
2023/01/20 13:21:39;;;;;;;23.98;15.25;;;;;;;5.76;100.00;99817.69;5032190;28;20260;-87